Time;durP1;ratioP1;P1;durP2;ratioP2;P2;SDS_P1;SDS_P2;PMS_P1;PMS_P2;Temp;Humidity;BMP_temperature;BMP_pressure;BME280_temperature;BME280_humidity;BME280_pressure;Samples;Min_cycle;Max_cycle;Signal;HPM_P1;HPM_P2
2022/01/11 00:02:04;;;;;;;;;;;;;;;;;;5040773;28;19920;-68
2022/01/11 00:04:31;;;;;;;;;;;11.10;95.90;;;;;;5056992;28;19921;-70
2022/01/11 00:06:58;;;;;;;;;;;11.00;95.80;;;;;;5058704;28;20012;-68
2022/01/11 00:09:34;;;;;;;;;;;11.00;95.70;;;;;;5051173;28;20286;-68
2022/01/11 00:12:00;;;;;;;;;;;11.10;95.80;;;;;;5056513;28;19921;-66
2022/01/11 00:14:26;;;;;;;;;;;11.00;95.80;;;;;;5045585;28;20298;-64
2022/01/11 00:16:54;;;;;;;;;;;10.90;95.60;;;;;;5058392;28;19925;-67
2022/01/11 00:19:20;;;;;;;;;;;11.30;95.70;;;;;;5072333;28;19917;-67
2022/01/11 00:21:48;;;;;;;;;;;11.00;95.60;;;;;;5041829;28;19920;-70
2022/01/11 00:24:30;;;;;;;;;;;10.90;95.60;;;;;;5020494;28;20015;-68
2022/01/11 00:27:09;;;;;;;;;;;10.70;95.60;;;;;;5040755;28;19921;-69
2022/01/11 00:29:36;;;;;;;;;;;10.90;95.60;;;;;;5055921;28;19924;-66
2022/01/11 00:32:07;;;;;;;;;;;11.00;95.50;;;;;;5044380;28;20388;-71
2022/01/11 00:35:10;;;;;;;;;;;10.90;95.50;;;;;;5042695;28;19995;-70
2022/01/11 00:37:26;;;;;;;;;;;11.10;95.50;;;;;;5040459;28;19925;-69
2022/01/11 00:39:52;;;;;;;;;;;10.90;95.40;;;;;;5040537;28;19928;-69
2022/01/11 00:42:18;;;;;;;;;;;10.70;95.30;;;;;;5036546;28;19921;-69
2022/01/11 00:44:44;;;;;;;;;;;;;;;;;;5050420;28;19943;-65
2022/01/11 00:47:10;;;;;;;;;;;11.10;95.40;;;;;;5051792;28;19921;-71
2022/01/11 00:49:38;;;;;;;;;;;10.80;95.30;;;;;;5053509;28;19928;-69
2022/01/11 00:52:04;;;;;;;;;;;11.00;95.40;;;;;;5055622;28;20012;-68
2022/01/11 00:54:30;;;;;;;;;;;11.00;95.40;;;;;;5055882;28;19966;-70
2022/01/11 00:56:56;;;;;;;;;;;11.00;95.50;;;;;;5055319;28;19920;-64
2022/01/11 00:59:21;;;;;;;;;;;10.80;95.30;;;;;;5055465;28;20301;-69
2022/01/11 01:01:47;;;;;;;;;;;10.90;95.30;;;;;;5051320;28;20330;-70
2022/01/11 01:04:13;;;;;;;;;;;10.70;95.30;;;;;;5048109;28;20044;-69
2022/01/11 01:06:39;;;;;;;;;;;10.70;95.30;;;;;;5055448;28;19927;-63
2022/01/11 01:09:05;;;;;;;;;;;10.90;95.30;;;;;;5040466;28;19921;-68
2022/01/11 01:11:31;;;;;;;;;;;10.80;95.20;;;;;;5043943;28;20400;-63
2022/01/11 01:13:57;;;;;;;;;;;10.90;95.20;;;;;;5042973;28;19920;-63
2022/01/11 01:16:23;;;;;;;;;;;10.90;95.20;;;;;;5051495;28;19973;-68
2022/01/11 01:18:49;;;;;;;;;;;11.10;95.30;;;;;;5044769;28;19921;-65
2022/01/11 01:21:14;;;;;;;;;;;10.70;95.10;;;;;;5036011;28;20412;-67
2022/01/11 01:23:40;;;;;;;;;;;11.00;95.10;;;;;;5054263;28;19983;-67
2022/01/11 01:26:06;;;;;;;;;;;10.60;95.00;;;;;;5055359;28;19921;-66
2022/01/11 01:28:32;;;;;;;;;;;;;;;;;;5038141;28;20426;-69
2022/01/11 01:31:01;;;;;;;;;;;10.80;95.00;;;;;;5045309;28;20386;-69
2022/01/11 01:33:29;;;;;;;;;;;10.80;95.00;;;;;;5054143;28;19967;-69
2022/01/11 01:36:01;;;;;;;;;;;10.80;95.00;;;;;;5050159;28;19974;-70
2022/01/11 01:38:27;;;;;;;;;;;10.70;95.00;;;;;;5054627;28;19925;-68
2022/01/11 01:40:55;;;;;;;;;;;10.70;95.00;;;;;;5051104;28;19925;-69
2022/01/11 01:43:21;;;;;;;;;;;10.90;95.00;;;;;;5035221;28;19921;-73
2022/01/11 01:45:49;;;;;;;;;;;10.60;94.90;;;;;;5049027;28;19921;-72
2022/01/11 01:48:16;;;;;;;;;;;10.60;94.80;;;;;;5033945;28;20363;-71
2022/01/11 01:50:42;;;;;;;;;;;10.80;94.80;;;;;;5035721;28;19921;-72
2022/01/11 01:53:10;;;;;;;;;;;;;;;;;;5051540;28;19956;-69
2022/01/11 01:55:39;;;;;;;;;;;11.00;94.90;;;;;;5038717;28;19973;-73
2022/01/11 01:58:05;;;;;;;;;;;10.70;94.80;;;;;;5054234;28;20277;-72
2022/01/11 02:00:32;;;;;;;;;;;10.50;94.70;;;;;;5034630;28;19921;-70
2022/01/11 02:03:05;;;;;;;;;;;10.80;94.80;;;;;;5030995;28;20433;-68
2022/01/11 02:05:31;;;;;;;;;;;10.60;94.80;;;;;;5045403;28;19921;-69
2022/01/11 02:07:59;;;;;;;;;;;10.80;94.90;;;;;;5045672;28;19927;-72
2022/01/11 02:10:25;;;;;;;;;;;10.50;94.70;;;;;;5036474;28;19928;-70
2022/01/11 02:12:51;;;;;;;;;;;10.90;94.80;;;;;;5053957;28;20363;-69
2022/01/11 02:15:17;;;;;;;;;;;;;;;;;;5039885;28;20018;-73
2022/01/11 02:17:46;;;;;;;;;;;10.60;94.70;;;;;;5051310;28;19920;-69
2022/01/11 02:20:13;;;;;;;;;;;10.80;94.70;;;;;;5037514;28;19929;-67
2022/01/11 02:22:41;;;;;;;;;;;10.60;94.60;;;;;;5041591;28;19968;-66
2022/01/11 02:25:07;;;;;;;;;;;10.60;94.60;;;;;;5044670;28;19921;-69
2022/01/11 02:27:33;;;;;;;;;;;10.50;94.60;;;;;;5043103;28;19926;-69
2022/01/11 02:29:58;;;;;;;;;;;10.60;94.60;;;;;;5039473;28;19921;-70
2022/01/11 02:32:24;;;;;;;;;;;10.60;94.60;;;;;;5049517;28;19920;-66
2022/01/11 02:34:50;;;;;;;;;;;10.50;94.50;;;;;;5049964;28;19921;-69
2022/01/11 02:37:16;;;;;;;;;;;10.60;94.50;;;;;;5041700;28;19924;-69
2022/01/11 02:39:43;;;;;;;;;;;10.60;94.50;;;;;;5035616;28;20015;-70
2022/01/11 02:42:09;;;;;;;;;;;10.50;94.50;;;;;;5040071;28;19927;-67
2022/01/11 02:44:35;;;;;;;;;;;10.90;94.60;;;;;;5053035;28;19921;-70
2022/01/11 02:47:00;;;;;;;;;;;10.80;94.50;;;;;;5057748;28;19920;-66
2022/01/11 02:49:26;;;;;;;;;;;10.90;94.50;;;;;;5052096;28;19920;-70
2022/01/11 02:51:52;;;;;;;;;;;10.40;94.40;;;;;;5053039;28;19947;-68
2022/01/11 02:54:21;;;;;;;;;;;10.70;94.50;;;;;;5045825;28;20333;-69
2022/01/11 02:56:47;;;;;;;;;;;10.40;94.40;;;;;;5053300;28;19920;-69
2022/01/11 02:59:12;;;;;;;;;;;10.70;94.50;;;;;;5049286;28;19921;-70
2022/01/11 03:01:38;;;;;;;;;;;10.60;94.50;;;;;;5023802;28;19921;-70
2022/01/11 03:04:04;;;;;;;;;;;10.70;94.50;;;;;;5048144;28;20007;-69
2022/01/11 03:06:29;;;;;;;;;;;10.60;94.50;;;;;;5053896;28;19921;-68
2022/01/11 03:08:55;;;;;;;;;;;10.70;94.50;;;;;;5029594;28;19968;-71
2022/01/11 03:11:21;;;;;;;;;;;10.80;94.50;;;;;;5053055;28;19921;-69
2022/01/11 03:13:47;;;;;;;;;;;10.70;94.50;;;;;;5045501;28;19924;-69
2022/01/11 03:16:13;;;;;;;;;;;10.50;94.40;;;;;;5040937;28;19929;-73
2022/01/11 03:18:39;;;;;;;;;;;10.90;94.50;;;;;;5037929;28;19987;-63
2022/01/11 03:21:05;;;;;;;;;;;;;;;;;;5042396;28;19991;-66
2022/01/11 03:23:31;;;;;;;;;;;10.40;94.30;;;;;;5052839;28;19921;-69
2022/01/11 03:25:56;;;;;;;;;;;10.50;94.30;;;;;;5047987;28;19944;-69
2022/01/11 03:28:23;;;;;;;;;;;10.60;94.30;;;;;;5042031;28;19960;-70
2022/01/11 03:30:49;;;;;;;;;;;10.90;94.30;;;;;;5037882;28;19928;-67
2022/01/11 03:33:15;;;;;;;;;;;10.60;94.20;;;;;;5045788;28;19916;-69
2022/01/11 03:35:40;;;;;;;;;;;10.60;94.20;;;;;;5052750;28;19975;-70
2022/01/11 03:38:06;;;;;;;;;;;10.30;94.20;;;;;;5047936;28;19925;-70
2022/01/11 03:40:32;;;;;;;;;;;10.50;94.20;;;;;;5038107;28;20004;-65
2022/01/11 03:42:58;;;;;;;;;;;10.30;94.20;;;;;;5051911;28;19968;-69
2022/01/11 03:45:24;;;;;;;;;;;10.30;94.20;;;;;;5053594;28;19986;-69
2022/01/11 03:47:50;;;;;;;;;;;10.40;94.20;;;;;;5035138;28;19950;-70
2022/01/11 03:50:17;;;;;;;;;;;10.50;94.20;;;;;;5050465;28;19924;-70
2022/01/11 03:52:43;;;;;;;;;;;10.60;94.30;;;;;;5051717;28;19925;-70
2022/01/11 03:55:13;;;;;;;;;;;10.40;94.20;;;;;;5048063;28;19921;-67
2022/01/11 03:57:39;;;;;;;;;;;;;;;;;;5044216;28;19964;-65
2022/01/11 04:00:07;;;;;;;;;;;10.30;94.20;;;;;;5052723;28;19920;-67
2022/01/11 04:02:32;;;;;;;;;;;10.40;94.30;;;;;;5034004;28;20003;-64
2022/01/11 04:04:58;;;;;;;;;;;;;;;;;;5052494;28;20052;-68
2022/01/11 04:07:26;;;;;;;;;;;10.50;94.30;;;;;;5049101;28;19979;-68
2022/01/11 04:09:51;;;;;;;;;;;10.60;94.30;;;;;;5035222;28;19924;-66
2022/01/11 04:12:17;;;;;;;;;;;10.30;94.10;;;;;;5040503;28;20362;-69
2022/01/11 04:14:43;;;;;;;;;;;10.20;94.10;;;;;;5053947;28;19920;-66
2022/01/11 04:17:09;;;;;;;;;;;10.60;94.20;;;;;;5056293;28;19920;-66
2022/01/11 04:19:34;;;;;;;;;;;10.40;94.20;;;;;;5055862;28;19943;-69
2022/01/11 04:22:01;;;;;;;;;;;;;;;;;;5053342;28;20318;-67
2022/01/11 04:24:27;;;;;;;;;;;10.30;94.10;;;;;;5043965;28;19952;-69
2022/01/11 04:26:53;;;;;;;;;;;10.40;94.20;;;;;;5050171;28;19994;-68
2022/01/11 04:29:18;;;;;;;;;;;10.40;94.20;;;;;;5055069;28;19920;-66
2022/01/11 04:31:44;;;;;;;;;;;10.50;94.20;;;;;;5040151;28;19927;-66
2022/01/11 04:34:10;;;;;;;;;;;;;;;;;;5060563;28;20011;-65
2022/01/11 04:36:36;;;;;;;;;;;10.20;94.10;;;;;;5039016;28;20391;-70
2022/01/11 04:39:06;;;;;;;;;;;10.30;94.10;;;;;;5053917;28;20011;-66
2022/01/11 04:41:31;;;;;;;;;;;10.40;94.10;;;;;;5040265;28;20011;-67
2022/01/11 04:43:57;;;;;;;;;;;;;;;;;;5055973;28;19978;-65
2022/01/11 04:46:23;;;;;;;;;;;10.50;94.10;;;;;;5054672;28;19921;-70
2022/01/11 04:48:49;;;;;;;;;;;10.30;94.00;;;;;;5055186;28;19950;-68
2022/01/11 04:51:14;;;;;;;;;;;10.40;94.10;;;;;;5038896;28;20071;-69
2022/01/11 04:53:40;;;;;;;;;;;10.20;94.00;;;;;;5052409;28;19921;-66
2022/01/11 04:56:06;;;;;;;;;;;10.40;94.10;;;;;;5047370;28;19921;-68
2022/01/11 04:58:32;;;;;;;;;;;10.50;94.10;;;;;;5052201;28;20015;-67
2022/01/11 05:00:57;;;;;;;;;;;10.10;93.90;;;;;;5055162;28;19988;-69
2022/01/11 05:03:23;;;;;;;;;;;10.20;94.10;;;;;;5055577;28;19924;-69
2022/01/11 05:05:49;;;;;;;;;;;10.00;94.00;;;;;;5053876;28;20007;-68
2022/01/11 05:08:14;;;;;;;;;;;10.20;94.10;;;;;;5045364;28;19928;-69
2022/01/11 05:10:42;;;;;;;;;;;;;;;;;;5019396;28;19921;-70
2022/01/11 05:13:11;;;;;;;;;;;10.10;94.10;;;;;;5041110;28;20354;-68
2022/01/11 05:15:37;;;;;;;;;;;10.40;94.30;;;;;;5051352;28;20038;-70
2022/01/11 05:18:03;;;;;;;;;;;10.30;94.30;;;;;;5054081;28;19947;-68
2022/01/11 05:20:28;;;;;;;;;;;10.50;94.30;;;;;;5042197;28;19964;-65
2022/01/11 05:22:54;;;;;;;;;;;10.20;94.20;;;;;;5055136;28;19929;-67
2022/01/11 05:25:20;;;;;;;;;;;10.60;94.30;;;;;;5046824;28;19916;-69
2022/01/11 05:27:46;;;;;;;;;;;10.30;94.20;;;;;;5042971;28;19921;-68
2022/01/11 05:30:12;;;;;;;;;;;;;;;;;;5054474;28;20012;-65
2022/01/11 05:32:38;;;;;;;;;;;10.30;94.10;;;;;;5050995;28;19967;-67
2022/01/11 05:35:04;;;;;;;;;;;10.50;94.20;;;;;;5036763;28;19931;-65
2022/01/11 05:37:30;;;;;;;;;;;10.60;94.20;;;;;;5054155;28;19921;-70
2022/01/11 05:39:56;;;;;;;;;;;10.20;94.10;;;;;;5048716;28;19928;-70
2022/01/11 05:42:24;;;;;;;;;;;10.50;94.10;;;;;;5054981;28;20007;-70
2022/01/11 05:44:50;;;;;;;;;;;;;;;;;;5053982;28;19921;-63
2022/01/11 05:47:15;;;;;;;;;;;10.40;94.00;;;;;;5050953;28;20302;-71
2022/01/11 05:49:41;;;;;;;;;;;10.50;94.10;;;;;;5038170;28;19979;-72
2022/01/11 05:52:07;;;;;;;;;;;10.50;94.10;;;;;;5039806;28;20433;-69
2022/01/11 05:54:32;;;;;;;;;;;10.50;94.10;;;;;;5033050;28;19921;-69
2022/01/11 05:56:58;;;;;;;;;;;10.30;94.00;;;;;;5045767;28;19921;-69
2022/01/11 05:59:24;;;;;;;;;;;10.40;94.00;;;;;;5040461;28;19925;-66
2022/01/11 06:01:50;;;;;;;;;;;;;;;;;;5050025;28;20278;-68
2022/01/11 06:04:15;;;;;;;;;;;10.10;93.90;;;;;;5039416;28;19970;-70
2022/01/11 06:06:41;;;;;;;;;;;10.40;94.10;;;;;;5049399;28;19948;-70
2022/01/11 06:09:06;;;;;;;;;;;10.50;94.10;;;;;;5039265;28;20370;-72
2022/01/11 06:11:32;;;;;;;;;;;10.30;94.00;;;;;;5050327;28;20350;-69
2022/01/11 06:13:58;;;;;;;;;;;10.40;94.10;;;;;;5053575;28;19916;-70
2022/01/11 06:16:24;;;;;;;;;;;10.10;94.00;;;;;;5050350;28;19925;-72
2022/01/11 06:18:50;;;;;;;;;;;;;;;;;;5057475;28;19920;-62
2022/01/11 06:21:15;;;;;;;;;;;10.20;94.00;;;;;;5052894;28;20293;-69
2022/01/11 06:23:41;;;;;;;;;;;10.40;94.00;;;;;;5053812;28;19924;-63
2022/01/11 06:26:07;;;;;;;;;;;10.30;94.00;;;;;;5054030;28;19916;-70
2022/01/11 06:28:32;;;;;;;;;;;10.20;94.00;;;;;;5053953;28;19921;-70
2022/01/11 06:30:58;;;;;;;;;;;10.20;93.80;;;;;;5053189;28;20286;-68
2022/01/11 06:33:24;;;;;;;;;;;10.30;94.00;;;;;;5053872;28;20293;-68
2022/01/11 06:35:49;;;;;;;;;;;10.20;94.00;;;;;;5038211;28;19927;-67
2022/01/11 06:38:15;;;;;;;;;;;10.30;94.00;;;;;;5053214;28;19921;-67
2022/01/11 06:40:41;;;;;;;;;;;10.20;93.90;;;;;;5044943;28;20013;-72
2022/01/11 06:43:07;;;;;;;;;;;10.50;94.00;;;;;;5046640;28;19921;-70
2022/01/11 06:45:33;;;;;;;;;;;10.20;93.90;;;;;;5053444;28;19924;-70
2022/01/11 06:48:00;;;;;;;;;;;10.50;94.00;;;;;;5053002;28;19944;-70
2022/01/11 06:50:26;;;;;;;;;;;10.50;94.00;;;;;;5022327;28;19921;-70
2022/01/11 06:52:51;;;;;;;;;;;10.30;93.90;;;;;;5048895;28;20341;-70
2022/01/11 06:55:17;;;;;;;;;;;10.30;93.90;;;;;;5052127;28;19967;-71
2022/01/11 06:57:43;;;;;;;;;;;;;;;;;;5048102;28;19921;-71
2022/01/11 07:00:09;;;;;;;;;;;10.50;94.00;;;;;;5038587;28;19924;-70
2022/01/11 07:02:35;;;;;;;;;;;10.40;93.90;;;;;;5052899;28;19921;-70
2022/01/11 07:05:01;;;;;;;;;;;10.30;93.90;;;;;;5043460;28;19928;-70
2022/01/11 07:07:26;;;;;;;;;;;10.10;93.90;;;;;;5053980;28;20011;-69
2022/01/11 07:09:52;;;;;;;;;;;10.40;93.90;;;;;;5052872;28;20070;-73
2022/01/11 07:12:17;;;;;;;;;;;10.50;93.90;;;;;;5053077;28;19982;-62
2022/01/11 07:14:43;;;;;;;;;;;10.50;94.00;;;;;;5052940;28;20015;-63
2022/01/11 07:17:09;;;;;;;;;;;10.60;94.10;;;;;;5052701;28;19928;-62
2022/01/11 07:19:35;;;;;;;;;;;10.50;94.00;;;;;;5021569;28;19979;-71
2022/01/11 07:22:01;;;;;;;;;;;10.40;94.00;;;;;;5035296;28;19921;-71
2022/01/11 07:24:26;;;;;;;;;;;10.60;94.00;;;;;;5052911;28;19921;-69
2022/01/11 07:26:52;;;;;;;;;;;10.50;94.00;;;;;;5068027;28;20011;-61
2022/01/11 07:29:18;;;;;;;;;;;10.40;93.90;;;;;;5053069;28;19921;-62
2022/01/11 07:31:44;;;;;;;;;;;10.40;93.90;;;;;;5046494;28;20282;-66
2022/01/11 07:34:10;;;;;;;;;;;;;;;;;;5039647;28;19928;-67
2022/01/11 07:36:36;;;;;;;;;;;10.40;93.90;;;;;;5049234;28;20366;-67
2022/01/11 07:39:02;;;;;;;;;;;10.60;94.00;;;;;;5050388;28;20019;-67
2022/01/11 07:41:28;;;;;;;;;;;;;;;;;;5051005;28;19927;-67
2022/01/11 07:43:54;;;;;;;;;;;10.50;94.00;;;;;;5053843;28;19932;-68
2022/01/11 07:46:20;;;;;;;;;;;10.60;94.10;;;;;;5055984;28;19921;-66
2022/01/11 07:48:46;;;;;;;;;;;;;;;;;;5049152;28;19975;-68
2022/01/11 07:51:11;;;;;;;;;;;10.60;94.00;;;;;;5048324;28;19975;-71
2022/01/11 07:53:37;;;;;;;;;;;10.30;93.90;;;;;;5054055;28;19920;-69
2022/01/11 07:56:03;;;;;;;;;;;10.60;93.90;;;;;;5038883;28;19921;-71
2022/01/11 07:58:29;;;;;;;;;;;10.60;93.90;;;;;;5051467;28;19920;-64
2022/01/11 08:00:55;;;;;;;;;;;10.40;93.80;;;;;;5056869;28;19944;-62
2022/01/11 08:03:20;;;;;;;;;;;10.80;93.80;;;;;;5043062;28;19999;-65
2022/01/11 08:05:46;;;;;;;;;;;;;;;;;;5049651;28;19928;-68
2022/01/11 08:08:12;;;;;;;;;;;10.70;93.70;;;;;;5037214;28;19967;-69
2022/01/11 08:10:37;;;;;;;;;;;10.50;93.70;;;;;;5018822;28;20375;-65
2022/01/11 08:13:06;;;;;;;;;;;10.70;93.60;;;;;;5047405;28;19924;-70
2022/01/11 08:15:32;;;;;;;;;;;;;;;;;;5040390;28;19921;-69
2022/01/11 08:17:58;;;;;;;;;;;;;;;;;;5051841;28;19927;-69
2022/01/11 08:20:23;;;;;;;;;;;10.60;93.60;;;;;;5055853;28;19979;-71
2022/01/11 08:22:51;;;;;;;;;;;10.80;93.50;;;;;;5041984;28;19925;-66
2022/01/11 08:25:16;;;;;;;;;;;10.80;93.40;;;;;;5045546;28;21352;-72
2022/01/11 08:27:42;;;;;;;;;;;10.70;93.20;;;;;;5049340;28;19975;-65
2022/01/11 08:30:08;;;;;;;;;;;10.70;93.40;;;;;;5046822;28;20337;-61
2022/01/11 08:32:34;;;;;;;;;;;;;;;;;;5048507;28;20429;-64
2022/01/11 08:35:00;;;;;;;;;;;;;;;;;;5045986;28;19921;-63
2022/01/11 08:37:25;;;;;;;;;;;10.70;93.40;;;;;;5047788;28;19982;-63
2022/01/11 08:39:51;;;;;;;;;;;10.60;93.30;;;;;;5036003;28;19931;-63
2022/01/11 08:42:17;;;;;;;;;;;10.90;93.20;;;;;;5055183;28;19924;-63
2022/01/11 08:44:43;;;;;;;;;;;10.90;93.50;;;;;;5036295;28;19967;-64
2022/01/11 08:47:08;;;;;;;;;;;11.00;93.50;;;;;;5053796;28;20034;-62
2022/01/11 08:49:34;;;;;;;;;;;11.00;93.40;;;;;;5051557;28;19942;-62
2022/01/11 08:52:00;;;;;;;;;;;10.90;93.30;;;;;;5066289;28;19921;-62
2022/01/11 08:54:25;;;;;;;;;;;11.00;93.40;;;;;;5060963;28;20020;-62
2022/01/11 08:56:53;;;;;;;;;;;11.00;93.10;;;;;;5047591;28;19931;-61
2022/01/11 08:59:20;;;;;;;;;;;10.90;93.20;;;;;;5036439;28;19921;-62
2022/01/11 09:01:45;;;;;;;;;;;10.90;93.30;;;;;;5035845;28;19917;-62
2022/01/11 09:04:11;;;;;;;;;;;11.00;93.30;;;;;;5025375;28;20445;-65
2022/01/11 09:06:37;;;;;;;;;;;10.90;93.20;;;;;;5051525;28;19921;-65
2022/01/11 09:09:03;;;;;;;;;;;11.10;93.30;;;;;;5055621;28;19920;-65
2022/01/11 09:11:28;;;;;;;;;;;11.00;93.30;;;;;;5054846;28;19921;-65
2022/01/11 09:13:54;;;;;;;;;;;11.10;93.30;;;;;;5051035;28;20275;-65
2022/01/11 09:16:22;;;;;;;;;;;10.80;93.20;;;;;;5053984;28;19928;-66
2022/01/11 09:18:48;;;;;;;;;;;10.90;93.20;;;;;;5061819;28;19920;-62
2022/01/11 09:21:15;;;;;;;;;;;10.80;93.20;;;;;;5075757;28;20281;-62
2022/01/11 09:23:40;;;;;;;;;;;10.80;93.10;;;;;;5038345;28;19920;-62
2022/01/11 09:26:06;;;;;;;;;;;11.00;93.10;;;;;;5052347;28;19924;-62
2022/01/11 09:28:32;;;;;;;;;;;10.90;93.10;;;;;;5041959;28;19921;-65
2022/01/11 09:30:57;;;;;;;;;;;11.00;93.10;;;;;;5054042;28;20317;-65
2022/01/11 09:33:23;;;;;;;;;;;11.00;93.10;;;;;;5048577;28;19928;-64
2022/01/11 09:35:48;;;;;;;;;;;10.90;93.10;;;;;;5037381;28;19921;-65
2022/01/11 09:38:14;;;;;;;;;;;11.00;93.00;;;;;;5050322;28;19920;-66
2022/01/11 09:40:40;;;;;;;;;;;10.70;93.00;;;;;;5038738;28;19921;-65
2022/01/11 09:43:06;;;;;;;;;;;;;;;;;;5038852;28;19964;-66
2022/01/11 09:45:31;;;;;;;;;;;11.10;93.10;;;;;;5034839;28;19928;-65
2022/01/11 09:47:57;;;;;;;;;;;10.90;93.10;;;;;;5043076;28;19927;-65
2022/01/11 09:50:23;;;;;;;;;;;10.90;93.10;;;;;;5052134;28;20378;-65
2022/01/11 09:52:48;;;;;;;;;;;10.80;93.10;;;;;;5052439;28;19929;-65
2022/01/11 09:55:14;;;;;;;;;;;10.80;93.10;;;;;;5040659;28;19921;-67
2022/01/11 09:57:40;;;;;;;;;;;;;;;;;;5054020;28;19925;-66
2022/01/11 10:00:06;;;;;;;;;;;10.60;93.00;;;;;;5048926;28;19982;-66
2022/01/11 10:02:32;;;;;;;;;;;10.80;93.10;;;;;;5042230;28;19920;-64
2022/01/11 10:04:58;;;;;;;;;;;11.00;93.20;;;;;;5042833;28;19927;-65
2022/01/11 10:07:27;;;;;;;;;;;10.60;93.10;;;;;;5034680;28;19925;-65
2022/01/11 10:09:54;;;;;;;;;;;10.60;93.00;;;;;;5034701;28;19981;-66
2022/01/11 10:12:22;;;;;;;;;;;;;;;;;;5034922;28;20302;-65
2022/01/11 10:14:50;;;;;;;;;;;10.80;92.80;;;;;;5042745;28;19921;-65
2022/01/11 10:17:19;;;;;;;;;;;10.70;93.10;;;;;;5053167;28;19920;-65
2022/01/11 10:19:48;;;;;;;;;;;10.90;93.20;;;;;;5054218;28;19921;-63
2022/01/11 10:22:15;;;;;;;;;;;10.70;93.10;;;;;;5047867;28;19986;-63
2022/01/11 10:24:42;;;;;;;;;;;10.90;93.10;;;;;;5052130;28;20290;-62
2022/01/11 10:27:12;;;;;;;;;;;11.00;93.20;;;;;;5034610;28;19991;-62
2022/01/11 10:29:40;;;;;;;;;;;10.60;93.10;;;;;;5037651;28;19927;-62
2022/01/11 10:32:19;;;;;;;;;;;10.80;93.10;;;;;;5035065;28;20007;-62
2022/01/11 10:34:47;;;;;;;;;;;10.90;93.20;;;;;;5054707;28;19983;-63
2022/01/11 10:37:13;;;;;;;;;;;11.00;93.10;;;;;;5035795;28;19979;-64
2022/01/11 10:39:39;;;;;;;;;;;11.00;93.20;;;;;;5034633;28;19956;-63
2022/01/11 10:42:05;;;;;;;;;;;10.90;93.10;;;;;;5041589;28;19935;-62
2022/01/11 10:44:43;;;;;;;;;;;10.90;93.10;;;;;;5042155;28;20007;-62
2022/01/11 10:47:09;;;;;;;;;;;10.90;93.20;;;;;;5035722;28;20402;-62
2022/01/11 10:49:36;;;;;;;;;;;;;;;;;;5040980;28;20035;-64
2022/01/11 10:52:35;;;;;;;;;;;10.90;93.20;;;;;;5048957;28;20374;-63
2022/01/11 10:55:02;;;;;;;;;;;11.00;93.30;;;;;;4992442;28;20372;-64
2022/01/11 10:57:29;;;;;;;;;;;11.20;93.10;;;;;;4988917;28;19932;-62
2022/01/11 11:00:21;;;;;;;;;;;11.10;93.30;;;;;;4992377;28;19961;-63
2022/01/11 11:02:49;;;;;;;;;;;11.10;93.20;;;;;;4983774;28;20595;-63
2022/01/11 11:05:18;;;;;;;;;;;11.10;93.30;;;;;;4973120;28;19922;-63
2022/01/11 11:07:44;;;;;;;;;;;10.90;93.20;;;;;;4974885;28;20023;-63
2022/01/11 11:10:10;;;;;;;;;;;10.90;93.20;;;;;;4972101;28;19921;-65
2022/01/11 11:12:36;;;;;;;;;;;11.20;93.30;;;;;;4971669;28;20404;-65
2022/01/11 11:15:03;;;;;;;;;;;11.00;93.20;;;;;;4972186;28;19922;-65
2022/01/11 11:17:35;;;;;;;;;;;11.40;93.30;;;;;;4974129;28;19968;-63
2022/01/11 11:20:05;;;;;;;;;;;11.30;93.30;;;;;;4975406;28;20679;-62
2022/01/11 11:22:31;;;;;;;;;;;11.20;93.30;;;;;;4992304;28;20049;-62
2022/01/11 11:24:57;;;;;;;;;;;11.40;93.40;;;;;;4992103;28;19921;-62
2022/01/11 11:27:23;;;;;;;;;;;11.20;93.40;;;;;;4992224;28;20045;-63
2022/01/11 11:29:49;;;;;;;;;;;11.70;93.50;;;;;;4996896;28;19921;-62
2022/01/11 11:32:17;;;;;;;;;;;11.20;93.40;;;;;;5047517;28;20041;-63
2022/01/11 11:34:45;;;;;;;;;;;;;;;;;;5048131;28;20027;-65
2022/01/11 11:37:10;;;;;;;;;;;11.40;93.20;;;;;;5052920;28;19928;-65
2022/01/11 11:39:36;;;;;;;;;;;;;;;;;;5020907;28;20297;-65
2022/01/11 11:42:02;;;;;;;;;;;11.40;93.40;;;;;;5045005;28;20289;-65
2022/01/11 11:44:28;;;;;;;;;;;11.90;93.60;;;;;;5042889;28;19920;-65
2022/01/11 11:46:54;;;;;;;;;;;11.90;93.60;;;;;;5046784;28;19921;-70
2022/01/11 11:49:38;;;;;;;;;;;11.70;93.60;;;;;;5048023;28;19920;-62
2022/01/11 11:52:14;;;;;;;;;;;11.90;93.70;;;;;;5062567;28;19963;-63
2022/01/11 11:54:47;;;;;;;;;;;12.10;93.70;;;;;;5045815;28;20370;-64
2022/01/11 11:57:12;;;;;;;;;;;12.00;93.70;;;;;;5016075;28;19943;-64
2022/01/11 11:59:38;;;;;;;;;;;12.00;93.70;;;;;;5039857;28;20421;-62
2022/01/11 12:02:04;;;;;;;;;;;11.80;93.70;;;;;;5049994;28;19976;-62
2022/01/11 12:04:31;;;;;;;;;;;12.00;93.70;;;;;;5018189;28;19964;-64
2022/01/11 12:06:57;;;;;;;;;;;11.80;93.60;;;;;;5051846;28;19920;-62
2022/01/11 12:09:28;;;;;;;;;;;11.90;93.60;;;;;;5052482;28;19970;-63
2022/01/11 12:11:54;;;;;;;;;;;11.90;93.60;;;;;;5050646;28;19927;-63
2022/01/11 12:14:32;;;;;;;;;;;12.10;93.60;;;;;;5056987;28;19943;-65
2022/01/11 12:17:22;;;;;;;;;;;12.00;93.50;;;;;;5057240;28;19950;-62
2022/01/11 12:19:48;;;;;;;;;;;;;;;;;;5045499;28;19983;-65
2022/01/11 12:22:15;;;;;;;;;;;11.80;93.40;;;;;;5044834;28;19943;-66
2022/01/11 12:24:45;;;;;;;;;;;12.00;93.50;;;;;;5064091;28;19966;-65
2022/01/11 12:27:11;;;;;;;;;;;;;;;;;;5059244;28;19924;-65
2022/01/11 12:29:53;;;;;;;;;;;11.80;93.30;;;;;;5059944;28;20008;-65
2022/01/11 12:32:19;;;;;;;;;;;11.80;93.20;;;;;;5047915;28;19921;-66
2022/01/11 12:34:45;;;;;;;;;;;;;;;;;;5043971;28;19928;-64
2022/01/11 12:37:19;;;;;;;;;;;11.70;93.20;;;;;;5056673;28;19920;-63
2022/01/11 12:40:04;;;;;;;;;;;11.80;93.10;;;;;;5043303;28;20267;-62
2022/01/11 12:42:30;;;;;;;;;;;;;;;;;;5057997;28;20282;-65
2022/01/11 12:47:26;;;;;;;;;;;11.60;93.20;;;;;;5056142;28;20004;-65
2022/01/11 12:49:52;;;;;;;;;;;;;;;;;;5020449;28;20010;-65
2022/01/11 12:52:19;;;;;;;;;;;11.80;93.30;;;;;;5034116;28;19953;-65
2022/01/11 12:54:49;;;;;;;;;;;;;;;;;;5041606;28;19921;-68
2022/01/11 12:57:19;;;;;;;;;;;11.80;93.40;;;;;;5036035;28;19921;-65
2022/01/11 12:59:45;;;;;;;;;;;;;;;;;;5036804;28;19921;-65
2022/01/11 13:02:14;;;;;;;;;;;11.70;93.30;;;;;;5050015;28;19920;-65
2022/01/11 13:04:40;;;;;;;;;;;11.50;93.30;;;;;;5054934;28;19920;-65
2022/01/11 13:07:11;;;;;;;;;;;11.70;93.30;;;;;;5055828;28;20012;-65
2022/01/11 13:09:37;;;;;;;;;;;11.90;93.40;;;;;;5044933;28;20263;-66
2022/01/11 13:12:03;;;;;;;;;;;11.80;93.40;;;;;;5037251;28;19948;-65
2022/01/11 13:14:39;;;;;;;;;;;11.70;93.40;;;;;;5035833;28;19921;-65
2022/01/11 13:17:05;;;;;;;;;;;;;;;;;;5036953;28;19936;-65
2022/01/11 13:19:34;;;;;;;;;;;11.70;93.40;;;;;;5035980;28;19959;-67
2022/01/11 13:22:06;;;;;;;;;;;11.70;93.40;;;;;;5039047;28;19921;-67
2022/01/11 13:24:38;;;;;;;;;;;11.80;93.20;;;;;;5032950;28;19943;-64
2022/01/11 13:27:06;;;;;;;;;;;11.80;93.50;;;;;;5037640;28;20024;-67
2022/01/11 13:29:32;;;;;;;;;;;11.60;93.10;;;;;;5033739;28;19920;-64
2022/01/11 13:31:58;;;;;;;;;;;;;;;;;;5036404;28;19963;-61
2022/01/11 13:34:27;;;;;;;;;;;11.40;92.80;;;;;;5030962;28;19921;-69
2022/01/11 13:36:53;;;;;;;;;;;11.40;92.80;;;;;;5055176;28;19971;-63
2022/01/11 13:39:21;;;;;;;;;;;;;;;;;;5052848;28;19924;-64
2022/01/11 13:41:48;;;;;;;;;;;11.20;92.60;;;;;;5047431;28;19921;-62
2022/01/11 13:44:15;;;;;;;;;;;11.10;92.60;;;;;;5032359;28;19921;-62
2022/01/11 13:46:41;;;;;;;;;;;11.00;92.60;;;;;;5036678;28;19921;-63
2022/01/11 13:49:07;;;;;;;;;;;;;;;;;;5025958;28;19927;-65
2022/01/11 13:51:33;;;;;;;;;;;10.70;92.80;;;;;;5019271;28;19924;-64
2022/01/11 13:54:03;;;;;;;;;;;10.70;92.90;;;;;;5028514;28;19927;-64
2022/01/11 13:56:30;;;;;;;;;;;10.50;93.10;;;;;;5048625;28;19928;-63
2022/01/11 13:58:55;;;;;;;;;;;10.60;93.00;;;;;;5006272;28;19921;-63
2022/01/11 14:01:24;;;;;;;;;;;;;;;;;;5020738;28;19924;-64
2022/01/11 14:03:50;;;;;;;;;;;10.90;93.30;;;;;;5027910;28;19921;-66
2022/01/11 14:06:19;;;;;;;;;;;10.70;93.30;;;;;;5019512;28;19917;-65
2022/01/11 14:08:54;;;;;;;;;;;10.90;93.30;;;;;;5019821;28;19925;-64
2022/01/11 14:11:26;;;;;;;;;;;11.00;93.30;;;;;;5016819;28;19928;-64
2022/01/11 14:13:56;;;;;;;;;;;11.00;93.20;;;;;;5029820;28;19967;-63
2022/01/11 14:16:22;;;;;;;;;;;11.20;93.10;;;;;;5024493;28;20291;-65
2022/01/11 14:19:03;;;;;;;;;;;11.10;93.10;;;;;;5052545;28;20011;-63
2022/01/11 14:21:29;;;;;;;;;;;11.20;93.20;;;;;;5018191;28;19921;-68
2022/01/11 14:23:55;;;;;;;;;;;;;;;;;;5034544;28;20291;-66
2022/01/11 14:26:31;;;;;;;;;;;11.30;93.10;;;;;;5039943;28;19921;-64
2022/01/11 14:28:57;;;;;;;;;;;11.10;93.10;;;;;;5034703;28;20329;-64
2022/01/11 14:31:23;;;;;;;;;;;11.00;93.00;;;;;;5031316;28;19978;-68
2022/01/11 14:33:49;;;;;;;;;;;11.20;93.00;;;;;;5035437;28;19920;-68
2022/01/11 14:36:18;;;;;;;;;;;11.20;93.00;;;;;;5036259;28;19921;-67